sensor_id;sensor_type;location;lat;lon;timestamp;temperature;humidity
26164;DHT22;13914;48.178;11.716;2022-12-01T00:00:18;2.40;98.90
26164;DHT22;13914;48.178;11.716;2022-12-01T00:02:44;2.40;98.90
26164;DHT22;13914;48.178;11.716;2022-12-01T00:05:10;2.40;98.90
26164;DHT22;13914;48.178;11.716;2022-12-01T00:07:36;2.40;98.90
26164;DHT22;13914;48.178;11.716;2022-12-01T00:10:01;2.30;98.90
26164;DHT22;13914;48.178;11.716;2022-12-01T00:12:46;2.40;98.90
26164;DHT22;13914;48.178;11.716;2022-12-01T00:15:11;2.30;98.90
26164;DHT22;13914;48.178;11.716;2022-12-01T00:17:37;2.30;98.90
26164;DHT22;13914;48.178;11.716;2022-12-01T00:20:03;2.30;98.90
26164;DHT22;13914;48.178;11.716;2022-12-01T00:22:30;2.30;98.90
26164;DHT22;13914;48.178;11.716;2022-12-01T00:24:56;2.30;99.00
26164;DHT22;13914;48.178;11.716;2022-12-01T00:27:21;2.30;98.90
26164;DHT22;13914;48.178;11.716;2022-12-01T00:29:47;2.30;98.90
26164;DHT22;13914;48.178;11.716;2022-12-01T00:32:13;2.30;98.90
26164;DHT22;13914;48.178;11.716;2022-12-01T00:34:38;2.30;98.90
26164;DHT22;13914;48.178;11.716;2022-12-01T00:37:04;2.30;98.90
26164;DHT22;13914;48.178;11.716;2022-12-01T00:39:30;2.30;98.90
26164;DHT22;13914;48.178;11.716;2022-12-01T00:41:56;2.30;99.00
26164;DHT22;13914;48.178;11.716;2022-12-01T00:44:21;2.30;99.00
26164;DHT22;13914;48.178;11.716;2022-12-01T00:46:47;2.20;99.00
26164;DHT22;13914;48.178;11.716;2022-12-01T00:49:13;2.20;99.00
26164;DHT22;13914;48.178;11.716;2022-12-01T00:51:40;2.30;99.00
26164;DHT22;13914;48.178;11.716;2022-12-01T00:54:05;2.30;98.90
26164;DHT22;13914;48.178;11.716;2022-12-01T00:56:31;2.30;99.00
26164;DHT22;13914;48.178;11.716;2022-12-01T00:58:57;2.20;99.00
26164;DHT22;13914;48.178;11.716;2022-12-01T01:01:23;2.20;99.10
26164;DHT22;13914;48.178;11.716;2022-12-01T01:03:48;2.20;99.00
26164;DHT22;13914;48.178;11.716;2022-12-01T01:06:14;2.20;99.00
26164;DHT22;13914;48.178;11.716;2022-12-01T01:08:40;2.20;99.00
26164;DHT22;13914;48.178;11.716;2022-12-01T01:11:07;2.20;99.00
26164;DHT22;13914;48.178;11.716;2022-12-01T01:13:33;2.20;99.10
26164;DHT22;13914;48.178;11.716;2022-12-01T01:16:01;2.20;99.10
26164;DHT22;13914;48.178;11.716;2022-12-01T01:18:36;2.20;99.20
26164;DHT22;13914;48.178;11.716;2022-12-01T01:21:03;2.20;99.20
26164;DHT22;13914;48.178;11.716;2022-12-01T01:23:31;2.20;99.20
26164;DHT22;13914;48.178;11.716;2022-12-01T01:26:01;2.20;99.10
26164;DHT22;13914;48.178;11.716;2022-12-01T01:28:29;2.20;99.10
26164;DHT22;13914;48.178;11.716;2022-12-01T01:30:55;2.20;99.10
26164;DHT22;13914;48.178;11.716;2022-12-01T01:33:21;2.20;99.00
26164;DHT22;13914;48.178;11.716;2022-12-01T01:35:46;2.20;98.90
26164;DHT22;13914;48.178;11.716;2022-12-01T01:38:12;2.20;98.90
26164;DHT22;13914;48.178;11.716;2022-12-01T01:40:42;2.20;99.00
26164;DHT22;13914;48.178;11.716;2022-12-01T01:43:12;2.20;98.90
26164;DHT22;13914;48.178;11.716;2022-12-01T01:45:39;2.20;99.00
26164;DHT22;13914;48.178;11.716;2022-12-01T01:48:05;2.20;99.00
26164;DHT22;13914;48.178;11.716;2022-12-01T01:50:32;2.20;99.00
26164;DHT22;13914;48.178;11.716;2022-12-01T01:53:00;2.20;99.10
26164;DHT22;13914;48.178;11.716;2022-12-01T01:55:28;2.20;99.20
26164;DHT22;13914;48.178;11.716;2022-12-01T01:57:54;2.20;99.10
26164;DHT22;13914;48.178;11.716;2022-12-01T02:00:20;2.20;99.10
26164;DHT22;13914;48.178;11.716;2022-12-01T02:02:46;2.20;99.60
26164;DHT22;13914;48.178;11.716;2022-12-01T02:05:16;2.20;99.30
26164;DHT22;13914;48.178;11.716;2022-12-01T02:07:46;2.20;99.30
26164;DHT22;13914;48.178;11.716;2022-12-01T02:10:12;2.20;99.40
26164;DHT22;13914;48.178;11.716;2022-12-01T02:12:51;2.20;99.20
26164;DHT22;13914;48.178;11.716;2022-12-01T02:31:58;2.20;99.20
26164;DHT22;13914;48.178;11.716;2022-12-01T02:37:17;2.20;99.20
26164;DHT22;13914;48.178;11.716;2022-12-01T02:43:03;2.20;99.30
26164;DHT22;13914;48.178;11.716;2022-12-01T02:45:42;2.20;99.30
26164;DHT22;13914;48.178;11.716;2022-12-01T02:48:23;2.20;99.40
26164;DHT22;13914;48.178;11.716;2022-12-01T02:50:52;2.20;99.20
26164;DHT22;13914;48.178;11.716;2022-12-01T02:53:19;2.20;99.30
26164;DHT22;13914;48.178;11.716;2022-12-01T02:55:55;2.20;99.20
26164;DHT22;13914;48.178;11.716;2022-12-01T02:58:22;2.20;99.40
26164;DHT22;13914;48.178;11.716;2022-12-01T03:06:38;2.20;99.20
26164;DHT22;13914;48.178;11.716;2022-12-01T03:15:04;2.30;99.20
26164;DHT22;13914;48.178;11.716;2022-12-01T03:17:35;2.20;99.20
26164;DHT22;13914;48.178;11.716;2022-12-01T03:20:14;2.20;99.20
26164;DHT22;13914;48.178;11.716;2022-12-01T03:22:45;2.20;99.10
26164;DHT22;13914;48.178;11.716;2022-12-01T03:25:14;2.20;99.20
26164;DHT22;13914;48.178;11.716;2022-12-01T03:27:42;2.30;99.30
26164;DHT22;13914;48.178;11.716;2022-12-01T03:30:08;2.30;99.20
26164;DHT22;13914;48.178;11.716;2022-12-01T03:32:37;2.30;99.20
26164;DHT22;13914;48.178;11.716;2022-12-01T03:35:07;2.20;99.20
26164;DHT22;13914;48.178;11.716;2022-12-01T03:37:53;2.30;99.20
26164;DHT22;13914;48.178;11.716;2022-12-01T03:40:23;2.30;99.30
26164;DHT22;13914;48.178;11.716;2022-12-01T03:45:19;2.30;99.30
26164;DHT22;13914;48.178;11.716;2022-12-01T03:47:49;2.30;99.30
26164;DHT22;13914;48.178;11.716;2022-12-01T03:50:15;2.30;99.30
26164;DHT22;13914;48.178;11.716;2022-12-01T03:52:45;2.30;99.20
26164;DHT22;13914;48.178;11.716;2022-12-01T03:58:00;2.30;99.30
26164;DHT22;13914;48.178;11.716;2022-12-01T04:00:28;2.30;99.40
26164;DHT22;13914;48.178;11.716;2022-12-01T04:02:56;2.30;99.40
26164;DHT22;13914;48.178;11.716;2022-12-01T04:05:23;2.30;99.40
26164;DHT22;13914;48.178;11.716;2022-12-01T04:07:49;2.30;99.30
26164;DHT22;13914;48.178;11.716;2022-12-01T04:10:14;2.30;99.30
26164;DHT22;13914;48.178;11.716;2022-12-01T04:12:40;2.30;99.70
26164;DHT22;13914;48.178;11.716;2022-12-01T04:15:07;2.30;99.50
26164;DHT22;13914;48.178;11.716;2022-12-01T04:17:35;2.30;99.50
26164;DHT22;13914;48.178;11.716;2022-12-01T04:20:01;2.30;99.40
26164;DHT22;13914;48.178;11.716;2022-12-01T04:22:28;2.30;99.40
26164;DHT22;13914;48.178;11.716;2022-12-01T04:24:54;2.30;99.60
26164;DHT22;13914;48.178;11.716;2022-12-01T04:27:20;2.30;99.40
26164;DHT22;13914;48.178;11.716;2022-12-01T04:29:45;2.30;99.40
26164;DHT22;13914;48.178;11.716;2022-12-01T04:32:11;2.30;99.30
26164;DHT22;13914;48.178;11.716;2022-12-01T04:34:37;2.30;99.20
26164;DHT22;13914;48.178;11.716;2022-12-01T04:37:04;2.30;99.30
26164;DHT22;13914;48.178;11.716;2022-12-01T04:39:30;2.30;99.30
26164;DHT22;13914;48.178;11.716;2022-12-01T04:41:55;2.40;99.30
26164;DHT22;13914;48.178;11.716;2022-12-01T04:44:21;2.30;99.20
26164;DHT22;13914;48.178;11.716;2022-12-01T04:46:47;2.40;99.40
26164;DHT22;13914;48.178;11.716;2022-12-01T04:49:12;2.30;99.30
26164;DHT22;13914;48.178;11.716;2022-12-01T04:51:38;2.40;99.20
26164;DHT22;13914;48.178;11.716;2022-12-01T04:54:04;2.40;99.20
26164;DHT22;13914;48.178;11.716;2022-12-01T04:56:30;2.40;99.30
26164;DHT22;13914;48.178;11.716;2022-12-01T04:58:57;2.40;99.20
26164;DHT22;13914;48.178;11.716;2022-12-01T05:01:23;2.40;99.20
26164;DHT22;13914;48.178;11.716;2022-12-01T05:03:49;2.40;99.10
26164;DHT22;13914;48.178;11.716;2022-12-01T05:06:19;2.40;99.10
26164;DHT22;13914;48.178;11.716;2022-12-01T05:08:46;2.40;99.10
26164;DHT22;13914;48.178;11.716;2022-12-01T05:11:13;2.40;99.10
26164;DHT22;13914;48.178;11.716;2022-12-01T05:13:39;2.50;99.10
26164;DHT22;13914;48.178;11.716;2022-12-01T05:16:08;2.40;99.20
26164;DHT22;13914;48.178;11.716;2022-12-01T05:18:35;2.40;99.20
26164;DHT22;13914;48.178;11.716;2022-12-01T05:21:00;2.40;99.30
26164;DHT22;13914;48.178;11.716;2022-12-01T05:23:29;2.40;99.20
26164;DHT22;13914;48.178;11.716;2022-12-01T05:25:56;2.40;99.40
26164;DHT22;13914;48.178;11.716;2022-12-01T05:28:22;2.40;99.40
26164;DHT22;13914;48.178;11.716;2022-12-01T05:30:49;2.40;99.70
26164;DHT22;13914;48.178;11.716;2022-12-01T05:33:15;2.40;99.30
26164;DHT22;13914;48.178;11.716;2022-12-01T05:35:41;2.40;99.30
26164;DHT22;13914;48.178;11.716;2022-12-01T05:38:07;2.40;99.30
26164;DHT22;13914;48.178;11.716;2022-12-01T05:40:33;2.40;99.40
26164;DHT22;13914;48.178;11.716;2022-12-01T05:42:59;2.40;99.30
26164;DHT22;13914;48.178;11.716;2022-12-01T05:45:25;2.40;99.30
26164;DHT22;13914;48.178;11.716;2022-12-01T05:47:57;2.40;99.30
26164;DHT22;13914;48.178;11.716;2022-12-01T05:50:24;2.40;99.20
26164;DHT22;13914;48.178;11.716;2022-12-01T05:52:50;2.40;99.40
26164;DHT22;13914;48.178;11.716;2022-12-01T05:55:16;2.50;99.30
26164;DHT22;13914;48.178;11.716;2022-12-01T05:57:41;2.40;99.40
26164;DHT22;13914;48.178;11.716;2022-12-01T06:00:08;2.50;99.50
26164;DHT22;13914;48.178;11.716;2022-12-01T06:02:34;2.50;99.50
26164;DHT22;13914;48.178;11.716;2022-12-01T06:04:59;2.40;99.50
26164;DHT22;13914;48.178;11.716;2022-12-01T06:07:25;2.40;99.40
26164;DHT22;13914;48.178;11.716;2022-12-01T06:09:51;2.50;99.40
26164;DHT22;13914;48.178;11.716;2022-12-01T06:12:18;2.50;99.40
26164;DHT22;13914;48.178;11.716;2022-12-01T06:14:44;2.50;99.40
26164;DHT22;13914;48.178;11.716;2022-12-01T06:17:10;2.50;99.40
26164;DHT22;13914;48.178;11.716;2022-12-01T06:19:36;2.50;99.30
26164;DHT22;13914;48.178;11.716;2022-12-01T06:22:02;2.50;99.40
26164;DHT22;13914;48.178;11.716;2022-12-01T06:24:28;2.50;99.20
26164;DHT22;13914;48.178;11.716;2022-12-01T06:26:54;2.60;99.40
26164;DHT22;13914;48.178;11.716;2022-12-01T06:29:19;2.50;99.20
26164;DHT22;13914;48.178;11.716;2022-12-01T06:31:45;2.50;99.40
26164;DHT22;13914;48.178;11.716;2022-12-01T06:34:11;2.50;99.40
26164;DHT22;13914;48.178;11.716;2022-12-01T06:36:36;2.50;99.40
26164;DHT22;13914;48.178;11.716;2022-12-01T06:39:06;2.50;99.50
26164;DHT22;13914;48.178;11.716;2022-12-01T06:41:35;2.50;99.40
26164;DHT22;13914;48.178;11.716;2022-12-01T06:44:04;2.50;99.40
26164;DHT22;13914;48.178;11.716;2022-12-01T06:46:30;2.50;99.30
26164;DHT22;13914;48.178;11.716;2022-12-01T06:48:55;2.50;99.40
26164;DHT22;13914;48.178;11.716;2022-12-01T06:51:21;2.50;99.40
26164;DHT22;13914;48.178;11.716;2022-12-01T06:53:51;2.50;99.30
26164;DHT22;13914;48.178;11.716;2022-12-01T06:56:17;2.50;99.80
26164;DHT22;13914;48.178;11.716;2022-12-01T06:58:43;2.50;99.40
26164;DHT22;13914;48.178;11.716;2022-12-01T07:01:09;2.50;99.30
26164;DHT22;13914;48.178;11.716;2022-12-01T07:03:35;2.50;99.20
26164;DHT22;13914;48.178;11.716;2022-12-01T07:06:01;2.50;99.20
26164;DHT22;13914;48.178;11.716;2022-12-01T07:08:28;2.50;99.30
26164;DHT22;13914;48.178;11.716;2022-12-01T07:11:04;2.50;99.30
26164;DHT22;13914;48.178;11.716;2022-12-01T07:13:31;2.50;99.30
26164;DHT22;13914;48.178;11.716;2022-12-01T07:15:57;2.50;99.20
26164;DHT22;13914;48.178;11.716;2022-12-01T07:18:23;2.50;99.20
26164;DHT22;13914;48.178;11.716;2022-12-01T07:20:49;2.50;99.20
26164;DHT22;13914;48.178;11.716;2022-12-01T07:23:15;2.50;99.20
26164;DHT22;13914;48.178;11.716;2022-12-01T07:25:40;2.50;99.30
26164;DHT22;13914;48.178;11.716;2022-12-01T07:28:06;2.50;99.20
26164;DHT22;13914;48.178;11.716;2022-12-01T07:30:32;2.60;99.30
26164;DHT22;13914;48.178;11.716;2022-12-01T07:32:58;2.60;99.30
26164;DHT22;13914;48.178;11.716;2022-12-01T07:35:26;2.60;99.20
26164;DHT22;13914;48.178;11.716;2022-12-01T07:37:53;2.60;99.10
26164;DHT22;13914;48.178;11.716;2022-12-01T07:40:19;2.60;99.20
26164;DHT22;13914;48.178;11.716;2022-12-01T07:42:45;2.60;99.10
26164;DHT22;13914;48.178;11.716;2022-12-01T07:45:11;2.60;99.10
26164;DHT22;13914;48.178;11.716;2022-12-01T07:47:37;2.70;99.10
26164;DHT22;13914;48.178;11.716;2022-12-01T07:50:02;2.60;99.10
26164;DHT22;13914;48.178;11.716;2022-12-01T07:52:28;2.70;99.10
26164;DHT22;13914;48.178;11.716;2022-12-01T07:54:54;2.70;99.10
26164;DHT22;13914;48.178;11.716;2022-12-01T07:57:20;2.70;99.10
26164;DHT22;13914;48.178;11.716;2022-12-01T07:59:46;2.70;99.00
26164;DHT22;13914;48.178;11.716;2022-12-01T08:02:11;2.70;99.00
26164;DHT22;13914;48.178;11.716;2022-12-01T08:04:37;2.70;99.10
26164;DHT22;13914;48.178;11.716;2022-12-01T08:07:03;2.70;99.40
26164;DHT22;13914;48.178;11.716;2022-12-01T08:09:29;2.70;99.00
26164;DHT22;13914;48.178;11.716;2022-12-01T08:11:54;2.70;99.00
26164;DHT22;13914;48.178;11.716;2022-12-01T08:14:20;2.80;99.00
26164;DHT22;13914;48.178;11.716;2022-12-01T08:16:46;2.80;99.00
26164;DHT22;13914;48.178;11.716;2022-12-01T08:19:12;2.80;99.00
26164;DHT22;13914;48.178;11.716;2022-12-01T08:21:38;2.80;99.00
26164;DHT22;13914;48.178;11.716;2022-12-01T08:24:04;2.80;99.00
26164;DHT22;13914;48.178;11.716;2022-12-01T08:26:30;2.80;99.00
26164;DHT22;13914;48.178;11.716;2022-12-01T08:28:56;2.80;99.00
26164;DHT22;13914;48.178;11.716;2022-12-01T08:31:27;2.80;99.00
26164;DHT22;13914;48.178;11.716;2022-12-01T08:33:57;2.80;99.00
26164;DHT22;13914;48.178;11.716;2022-12-01T08:36:23;2.80;99.00
26164;DHT22;13914;48.178;11.716;2022-12-01T08:38:50;2.90;99.00
26164;DHT22;13914;48.178;11.716;2022-12-01T08:41:17;2.90;99.00
26164;DHT22;13914;48.178;11.716;2022-12-01T08:43:43;2.90;99.00
26164;DHT22;13914;48.178;11.716;2022-12-01T08:46:10;2.90;99.00
26164;DHT22;13914;48.178;11.716;2022-12-01T08:48:36;2.90;99.10
26164;DHT22;13914;48.178;11.716;2022-12-01T08:51:03;2.90;99.00
26164;DHT22;13914;48.178;11.716;2022-12-01T08:53:31;2.90;99.00
26164;DHT22;13914;48.178;11.716;2022-12-01T08:55:58;2.90;99.00
26164;DHT22;13914;48.178;11.716;2022-12-01T08:58:32;2.90;98.90
26164;DHT22;13914;48.178;11.716;2022-12-01T09:01:05;2.90;99.00
26164;DHT22;13914;48.178;11.716;2022-12-01T09:03:33;2.90;99.00
26164;DHT22;13914;48.178;11.716;2022-12-01T09:06:03;2.90;98.90
26164;DHT22;13914;48.178;11.716;2022-12-01T09:08:30;3.00;98.90
26164;DHT22;13914;48.178;11.716;2022-12-01T09:10:56;3.00;98.90
26164;DHT22;13914;48.178;11.716;2022-12-01T09:13:23;3.00;98.90
26164;DHT22;13914;48.178;11.716;2022-12-01T09:15:56;3.00;98.80
26164;DHT22;13914;48.178;11.716;2022-12-01T09:18:22;3.00;98.90
26164;DHT22;13914;48.178;11.716;2022-12-01T09:20:48;3.00;98.80
26164;DHT22;13914;48.178;11.716;2022-12-01T09:23:14;3.00;98.80
26164;DHT22;13914;48.178;11.716;2022-12-01T09:25:39;3.00;98.80
26164;DHT22;13914;48.178;11.716;2022-12-01T09:28:05;3.00;98.80
26164;DHT22;13914;48.178;11.716;2022-12-01T09:30:31;3.10;98.80
26164;DHT22;13914;48.178;11.716;2022-12-01T09:32:59;3.10;98.80
26164;DHT22;13914;48.178;11.716;2022-12-01T09:35:25;3.00;98.80
26164;DHT22;13914;48.178;11.716;2022-12-01T09:37:51;3.10;98.80
26164;DHT22;13914;48.178;11.716;2022-12-01T09:40:16;3.10;98.80
26164;DHT22;13914;48.178;11.716;2022-12-01T09:42:42;3.10;98.80
26164;DHT22;13914;48.178;11.716;2022-12-01T09:45:10;3.10;98.80
26164;DHT22;13914;48.178;11.716;2022-12-01T09:47:46;3.10;98.80
26164;DHT22;13914;48.178;11.716;2022-12-01T09:52:44;3.20;98.80
26164;DHT22;13914;48.178;11.716;2022-12-01T09:55:15;3.20;98.80
26164;DHT22;13914;48.178;11.716;2022-12-01T09:57:43;3.20;98.80
26164;DHT22;13914;48.178;11.716;2022-12-01T10:00:16;3.20;98.70
26164;DHT22;13914;48.178;11.716;2022-12-01T10:02:51;3.20;98.80
26164;DHT22;13914;48.178;11.716;2022-12-01T10:05:20;3.20;98.80
26164;DHT22;13914;48.178;11.716;2022-12-01T10:07:58;3.20;98.80
26164;DHT22;13914;48.178;11.716;2022-12-01T10:10:27;3.30;98.80
26164;DHT22;13914;48.178;11.716;2022-12-01T10:13:00;3.20;98.80
26164;DHT22;13914;48.178;11.716;2022-12-01T10:20:45;3.30;98.80
26164;DHT22;13914;48.178;11.716;2022-12-01T10:23:21;3.30;98.80
26164;DHT22;13914;48.178;11.716;2022-12-01T10:25:59;3.30;98.70
26164;DHT22;13914;48.178;11.716;2022-12-01T10:31:20;3.30;98.80
26164;DHT22;13914;48.178;11.716;2022-12-01T10:34:00;3.30;98.80
26164;DHT22;13914;48.178;11.716;2022-12-01T10:36:29;3.40;99.20
26164;DHT22;13914;48.178;11.716;2022-12-01T10:38:55;3.40;98.80
26164;DHT22;13914;48.178;11.716;2022-12-01T10:41:21;3.40;98.70
26164;DHT22;13914;48.178;11.716;2022-12-01T10:43:51;3.40;98.70
26164;DHT22;13914;48.178;11.716;2022-12-01T10:46:20;3.40;98.70
26164;DHT22;13914;48.178;11.716;2022-12-01T10:48:55;3.40;98.70
26164;DHT22;13914;48.178;11.716;2022-12-01T10:51:22;3.40;98.70
26164;DHT22;13914;48.178;11.716;2022-12-01T10:53:48;3.40;98.70
26164;DHT22;13914;48.178;11.716;2022-12-01T10:56:15;3.40;98.70
26164;DHT22;13914;48.178;11.716;2022-12-01T10:58:51;3.50;98.70
26164;DHT22;13914;48.178;11.716;2022-12-01T11:01:22;3.50;98.70
26164;DHT22;13914;48.178;11.716;2022-12-01T11:03:56;3.50;98.70
26164;DHT22;13914;48.178;11.716;2022-12-01T11:06:26;3.50;98.70
26164;DHT22;13914;48.178;11.716;2022-12-01T11:08:57;3.50;98.70
26164;DHT22;13914;48.178;11.716;2022-12-01T11:11:29;3.50;98.70
26164;DHT22;13914;48.178;11.716;2022-12-01T11:13:57;3.50;98.70
26164;DHT22;13914;48.178;11.716;2022-12-01T11:16:41;3.60;98.70
26164;DHT22;13914;48.178;11.716;2022-12-01T11:19:17;3.50;98.70
26164;DHT22;13914;48.178;11.716;2022-12-01T11:21:53;3.50;98.70
26164;DHT22;13914;48.178;11.716;2022-12-01T11:24:31;3.60;98.70
26164;DHT22;13914;48.178;11.716;2022-12-01T11:27:13;3.60;98.70
26164;DHT22;13914;48.178;11.716;2022-12-01T11:29:39;3.60;98.60
26164;DHT22;13914;48.178;11.716;2022-12-01T11:32:25;3.60;98.60
26164;DHT22;13914;48.178;11.716;2022-12-01T11:34:54;3.60;98.60
26164;DHT22;13914;48.178;11.716;2022-12-01T11:37:23;3.60;98.60
26164;DHT22;13914;48.178;11.716;2022-12-01T11:39:52;3.60;98.60
26164;DHT22;13914;48.178;11.716;2022-12-01T11:42:20;3.60;98.70
26164;DHT22;13914;48.178;11.716;2022-12-01T11:44:49;3.70;98.70
26164;DHT22;13914;48.178;11.716;2022-12-01T11:47:28;3.70;98.70
26164;DHT22;13914;48.178;11.716;2022-12-01T11:49:55;3.70;98.60
26164;DHT22;13914;48.178;11.716;2022-12-01T11:52:30;3.70;98.60
26164;DHT22;13914;48.178;11.716;2022-12-01T11:57:36;3.70;98.60
26164;DHT22;13914;48.178;11.716;2022-12-01T12:00:20;3.70;98.60
26164;DHT22;13914;48.178;11.716;2022-12-01T12:11:16;3.70;98.50
26164;DHT22;13914;48.178;11.716;2022-12-01T12:16:33;3.80;98.40
26164;DHT22;13914;48.178;11.716;2022-12-01T12:19:10;3.80;98.50
26164;DHT22;13914;48.178;11.716;2022-12-01T12:24:27;3.80;98.50
26164;DHT22;13914;48.178;11.716;2022-12-01T12:27:13;3.80;98.30
26164;DHT22;13914;48.178;11.716;2022-12-01T12:30:14;3.80;98.30
26164;DHT22;13914;48.178;11.716;2022-12-01T12:35:29;3.80;98.40
26164;DHT22;13914;48.178;11.716;2022-12-01T12:46:26;3.90;98.40
26164;DHT22;13914;48.178;11.716;2022-12-01T12:56:48;3.90;98.80
26164;DHT22;13914;48.178;11.716;2022-12-01T12:59:22;4.00;98.40
26164;DHT22;13914;48.178;11.716;2022-12-01T13:01:56;4.00;98.50
26164;DHT22;13914;48.178;11.716;2022-12-01T13:04:43;4.00;98.30
26164;DHT22;13914;48.178;11.716;2022-12-01T13:09:42;4.00;98.30
26164;DHT22;13914;48.178;11.716;2022-12-01T13:12:11;4.00;98.30
26164;DHT22;13914;48.178;11.716;2022-12-01T13:17:21;4.00;98.40
26164;DHT22;13914;48.178;11.716;2022-12-01T13:19:51;4.00;98.30
26164;DHT22;13914;48.178;11.716;2022-12-01T13:22:17;4.00;98.40
26164;DHT22;13914;48.178;11.716;2022-12-01T13:24:43;4.00;98.70
26164;DHT22;13914;48.178;11.716;2022-12-01T13:29:38;4.00;98.30
26164;DHT22;13914;48.178;11.716;2022-12-01T13:32:23;4.00;98.30
26164;DHT22;13914;48.178;11.716;2022-12-01T13:35:16;4.10;98.40
26164;DHT22;13914;48.178;11.716;2022-12-01T13:37:46;4.10;98.80
26164;DHT22;13914;48.178;11.716;2022-12-01T13:40:22;4.10;98.30
26164;DHT22;13914;48.178;11.716;2022-12-01T13:42:57;4.10;98.30
26164;DHT22;13914;48.178;11.716;2022-12-01T13:45:26;4.10;98.20
26164;DHT22;13914;48.178;11.716;2022-12-01T13:47:56;4.10;98.30
26164;DHT22;13914;48.178;11.716;2022-12-01T14:06:26;4.10;98.20
26164;DHT22;13914;48.178;11.716;2022-12-01T14:09:12;4.10;98.20
26164;DHT22;13914;48.178;11.716;2022-12-01T14:11:53;4.10;98.20
26164;DHT22;13914;48.178;11.716;2022-12-01T14:14:20;4.10;98.20
26164;DHT22;13914;48.178;11.716;2022-12-01T14:21:54;4.10;98.10
26164;DHT22;13914;48.178;11.716;2022-12-01T14:24:23;4.10;98.20
26164;DHT22;13914;48.178;11.716;2022-12-01T14:26:52;4.10;98.10
26164;DHT22;13914;48.178;11.716;2022-12-01T14:29:25;4.10;98.10
26164;DHT22;13914;48.178;11.716;2022-12-01T14:34:28;4.10;98.10
26164;DHT22;13914;48.178;11.716;2022-12-01T14:37:11;4.10;98.10
26164;DHT22;13914;48.178;11.716;2022-12-01T14:39:40;4.10;98.10
26164;DHT22;13914;48.178;11.716;2022-12-01T14:45:49;4.10;98.10
26164;DHT22;13914;48.178;11.716;2022-12-01T14:48:20;4.10;98.10
26164;DHT22;13914;48.178;11.716;2022-12-01T14:50:52;4.10;98.10
26164;DHT22;13914;48.178;11.716;2022-12-01T14:53:32;4.10;98.10
26164;DHT22;13914;48.178;11.716;2022-12-01T14:56:07;4.10;98.20
26164;DHT22;13914;48.178;11.716;2022-12-01T14:58:35;4.10;98.10
26164;DHT22;13914;48.178;11.716;2022-12-01T15:01:03;4.10;98.10
26164;DHT22;13914;48.178;11.716;2022-12-01T15:03:50;4.10;98.20
26164;DHT22;13914;48.178;11.716;2022-12-01T15:06:22;4.00;98.20
26164;DHT22;13914;48.178;11.716;2022-12-01T15:11:32;4.00;98.20
26164;DHT22;13914;48.178;11.716;2022-12-01T15:13:57;4.00;98.20
26164;DHT22;13914;48.178;11.716;2022-12-01T15:16:26;4.00;98.20
26164;DHT22;13914;48.178;11.716;2022-12-01T15:18:54;4.00;98.20
26164;DHT22;13914;48.178;11.716;2022-12-01T15:21:24;4.00;98.20
26164;DHT22;13914;48.178;11.716;2022-12-01T15:24:04;4.00;98.20
26164;DHT22;13914;48.178;11.716;2022-12-01T15:26:44;4.00;98.30
26164;DHT22;13914;48.178;11.716;2022-12-01T15:29:20;4.00;98.30
26164;DHT22;13914;48.178;11.716;2022-12-01T15:31:47;4.00;98.30
26164;DHT22;13914;48.178;11.716;2022-12-01T15:34:20;4.00;98.30
26164;DHT22;13914;48.178;11.716;2022-12-01T15:36:48;4.00;98.30
26164;DHT22;13914;48.178;11.716;2022-12-01T15:39:16;4.00;98.30
26164;DHT22;13914;48.178;11.716;2022-12-01T15:41:44;4.00;98.30
26164;DHT22;13914;48.178;11.716;2022-12-01T15:44:17;3.90;98.30
26164;DHT22;13914;48.178;11.716;2022-12-01T15:49:55;3.90;98.30
26164;DHT22;13914;48.178;11.716;2022-12-01T15:52:21;3.90;98.30
26164;DHT22;13914;48.178;11.716;2022-12-01T15:54:47;3.90;98.30
26164;DHT22;13914;48.178;11.716;2022-12-01T15:57:14;3.90;98.30
26164;DHT22;13914;48.178;11.716;2022-12-01T15:59:43;3.90;98.40
26164;DHT22;13914;48.178;11.716;2022-12-01T16:07:37;3.90;98.40
26164;DHT22;13914;48.178;11.716;2022-12-01T16:10:03;3.90;98.50
26164;DHT22;13914;48.178;11.716;2022-12-01T16:12:30;3.90;98.40
26164;DHT22;13914;48.178;11.716;2022-12-01T16:20:23;3.80;98.40
26164;DHT22;13914;48.178;11.716;2022-12-01T16:22:51;3.80;98.50
26164;DHT22;13914;48.178;11.716;2022-12-01T16:27:59;3.80;98.50
26164;DHT22;13914;48.178;11.716;2022-12-01T16:30:26;3.80;98.50
26164;DHT22;13914;48.178;11.716;2022-12-01T16:33:01;3.80;98.50
26164;DHT22;13914;48.178;11.716;2022-12-01T16:35:31;3.80;98.50
26164;DHT22;13914;48.178;11.716;2022-12-01T16:38:03;3.80;98.50
26164;DHT22;13914;48.178;11.716;2022-12-01T16:40:38;3.80;98.50
26164;DHT22;13914;48.178;11.716;2022-12-01T16:43:07;3.80;98.50
26164;DHT22;13914;48.178;11.716;2022-12-01T16:45:38;3.80;98.50
26164;DHT22;13914;48.178;11.716;2022-12-01T16:48:04;3.80;98.60
26164;DHT22;13914;48.178;11.716;2022-12-01T16:50:29;3.80;98.50
26164;DHT22;13914;48.178;11.716;2022-12-01T16:52:55;3.70;98.50
26164;DHT22;13914;48.178;11.716;2022-12-01T16:55:22;3.70;98.60
26164;DHT22;13914;48.178;11.716;2022-12-01T16:57:51;3.70;98.50
26164;DHT22;13914;48.178;11.716;2022-12-01T17:00:17;3.70;98.50
26164;DHT22;13914;48.178;11.716;2022-12-01T17:02:43;3.70;98.60
26164;DHT22;13914;48.178;11.716;2022-12-01T17:05:10;3.70;98.60
26164;DHT22;13914;48.178;11.716;2022-12-01T17:07:35;3.70;98.60
26164;DHT22;13914;48.178;11.716;2022-12-01T17:10:01;3.70;98.60
26164;DHT22;13914;48.178;11.716;2022-12-01T17:12:28;3.70;98.60
26164;DHT22;13914;48.178;11.716;2022-12-01T17:14:53;3.70;98.60
26164;DHT22;13914;48.178;11.716;2022-12-01T17:17:19;3.70;98.60
26164;DHT22;13914;48.178;11.716;2022-12-01T17:19:45;3.70;98.60
26164;DHT22;13914;48.178;11.716;2022-12-01T17:22:10;3.70;98.60
26164;DHT22;13914;48.178;11.716;2022-12-01T17:24:36;3.60;98.60
26164;DHT22;13914;48.178;11.716;2022-12-01T17:27:02;3.70;98.60
26164;DHT22;13914;48.178;11.716;2022-12-01T17:29:27;3.70;98.60
26164;DHT22;13914;48.178;11.716;2022-12-01T17:31:53;3.70;98.60
26164;DHT22;13914;48.178;11.716;2022-12-01T17:34:19;3.60;98.60
26164;DHT22;13914;48.178;11.716;2022-12-01T17:36:44;3.60;98.60
26164;DHT22;13914;48.178;11.716;2022-12-01T17:39:10;3.60;98.60
26164;DHT22;13914;48.178;11.716;2022-12-01T17:41:36;3.60;98.60
26164;DHT22;13914;48.178;11.716;2022-12-01T17:44:02;3.60;98.60
26164;DHT22;13914;48.178;11.716;2022-12-01T17:46:28;3.60;98.50
26164;DHT22;13914;48.178;11.716;2022-12-01T17:48:54;3.60;98.60
26164;DHT22;13914;48.178;11.716;2022-12-01T17:51:20;3.60;98.60
26164;DHT22;13914;48.178;11.716;2022-12-01T17:53:46;3.60;98.60
26164;DHT22;13914;48.178;11.716;2022-12-01T17:56:12;3.60;98.60
26164;DHT22;13914;48.178;11.716;2022-12-01T17:58:39;3.60;98.70